Time;durP1;ratioP1;P1;durP2;ratioP2;P2;SDS_P1;SDS_P2;PMS_P1;PMS_P2;Temp;Humidity;BMP_temperature;BMP_pressure;BME280_temperature;BME280_humidity;BME280_pressure;Samples;Min_cycle;Max_cycle;Signal;HPM_P1;HPM_P2
2021/09/29 00:01:52;;;;;;;10.30;5.65;;;;;;;11.77;100.00;100486.75;6273856;28;20051;-76
2021/09/29 00:04:53;;;;;;;10.10;5.22;;;;;;;11.78;100.00;100505.91;6272338;28;20052;-76
2021/09/29 00:07:54;;;;;;;10.50;6.03;;;;;;;11.79;100.00;100499.72;6272462;28;20079;-75
2021/09/29 00:10:55;;;;;;;8.95;5.68;;;;;;;11.78;100.00;100500.69;6272438;28;20135;-75
2021/09/29 00:13:56;;;;;;;7.03;5.53;;;;;;;11.70;100.00;100499.34;6272308;28;20135;-75
2021/09/29 00:16:57;;;;;;;13.80;5.68;;;;;;;11.67;100.00;100496.91;6271982;28;20060;-75
2021/09/29 00:19:58;;;;;;;9.98;5.32;;;;;;;11.67;100.00;100494.31;6272754;28;20049;-75
2021/09/29 00:22:59;;;;;;;13.13;6.00;;;;;;;11.67;100.00;100499.53;6273018;28;20472;-75
2021/09/29 00:26:00;;;;;;;10.13;5.65;;;;;;;11.64;100.00;100498.88;6272008;28;20103;-75
2021/09/29 00:29:00;;;;;;;12.48;5.72;;;;;;;11.72;100.00;100507.09;6272088;28;20665;-75
2021/09/29 00:32:05;;;;;;;9.25;4.85;;;;;;;11.69;100.00;100505.53;6273059;28;20514;-75
2021/09/29 00:35:13;;;;;;;9.85;5.53;;;;;;;11.70;100.00;100509.78;6272333;28;20484;-75
2021/09/29 00:38:14;;;;;;;11.35;5.85;;;;;;;11.70;100.00;100511.56;6272855;28;20055;-75
2021/09/29 00:41:14;;;;;;;10.23;5.90;;;;;;;11.69;100.00;100502.91;6271676;28;20041;-75
2021/09/29 00:44:16;;;;;;;9.32;5.10;;;;;;;11.73;100.00;100519.22;6271186;28;20438;-75
2021/09/29 00:47:18;;;;;;;8.45;5.78;;;;;;;11.77;100.00;100518.13;6255154;28;20365;-75
2021/09/29 00:50:18;;;;;;;10.35;5.88;;;;;;;11.79;100.00;100513.63;6271455;28;20036;-76
2021/09/29 00:53:20;;;;;;;8.40;5.32;;;;;;;11.85;100.00;100515.06;6272750;28;20510;-75
2021/09/29 00:56:21;;;;;;;9.20;5.70;;;;;;;11.95;100.00;100508.38;6272437;28;20056;-75
2021/09/29 00:59:22;;;;;;;11.20;5.78;;;;;;;12.00;100.00;100508.09;6271167;28;20061;-76
2021/09/29 01:02:23;;;;;;;9.55;5.82;;;;;;;12.00;100.00;100500.25;6271795;28;20041;-75
2021/09/29 01:05:24;;;;;;;11.07;5.43;;;;;;;12.06;100.00;100500.72;6271973;28;20119;-76
2021/09/29 01:08:47;;;;;;;10.15;6.15;;;;;;;12.17;100.00;100500.09;6272050;28;20060;-75
2021/09/29 01:12:15;;;;;;;10.77;5.70;;;;;;;12.24;100.00;100501.41;6272195;28;20041;-75
2021/09/29 01:15:25;;;;;;;10.98;6.05;;;;;;;12.28;100.00;100492.44;6270857;28;20052;-76
2021/09/29 01:18:32;;;;;;;12.55;6.07;;;;;;;12.32;100.00;100495.69;6292772;28;20053;-75
2021/09/29 01:21:49;;;;;;;10.45;5.63;;;;;;;12.36;100.00;100485.91;6296812;28;20375;-75
2021/09/29 01:25:00;;;;;;;8.93;5.30;;;;;;;12.34;100.00;100485.97;6296703;28;20426;-76
2021/09/29 01:28:01;;;;;;;10.30;6.10;;;;;;;12.33;100.00;100494.75;6295560;28;20442;-75
2021/09/29 01:31:03;;;;;;;9.40;5.70;;;;;;;12.33;100.00;100481.66;6294388;28;20041;-75
2021/09/29 01:34:06;;;;;;;14.10;6.13;;;;;;;12.33;100.00;100494.75;6295335;28;20400;-75
2021/09/29 01:37:09;;;;;;;14.65;6.32;;;;;;;12.33;100.00;100493.91;6329488;28;20070;-76
2021/09/29 01:40:11;;;;;;;7.75;5.63;;;;;;;12.34;100.00;100485.97;6296688;28;20102;-75
2021/09/29 01:43:12;;;;;;;9.40;5.43;;;;;;;12.30;100.00;100487.09;6296450;28;20123;-75
2021/09/29 01:46:14;;;;;;;8.55;5.55;;;;;;;12.29;100.00;100488.88;6296364;28;20047;-75
2021/09/29 01:49:30;;;;;;;10.50;5.68;;;;;;;12.30;100.00;100487.94;6296440;28;20072;-75
2021/09/29 01:52:36;;;;;;;15.80;6.00;;;;;;;12.32;100.00;100490.47;6296396;28;20049;-75
2021/09/29 01:55:38;;;;;;;11.40;5.47;;;;;;;12.32;100.00;100479.16;6296373;28;20044;-75
2021/09/29 01:58:39;;;;;;;;;;;;;;;12.30;100.00;100477.47;6295450;28;20109;-75
2021/09/29 02:01:41;;;;;;;8.75;5.50;;;;;;;12.28;100.00;100481.97;6294883;28;19920;-75
2021/09/29 02:04:44;;;;;;;7.38;5.22;;;;;;;12.25;100.00;100484.78;6295203;28;20048;-75
2021/09/29 02:07:45;;;;;;;9.65;5.75;;;;;;;12.23;100.00;100484.03;6279206;28;20098;-75
2021/09/29 02:10:46;;;;;;;9.20;5.85;;;;;;;12.19;100.00;100477.31;6271189;28;20041;-76
2021/09/29 02:13:47;;;;;;;11.30;6.32;;;;;;;12.17;100.00;100475.69;6270157;28;20633;-76
2021/09/29 02:16:50;;;;;;;7.30;5.85;;;;;;;12.16;100.00;100487.94;6275265;28;20472;-76
2021/09/29 02:19:51;;;;;;;7.80;5.00;;;;;;;12.10;100.00;100488.31;6275073;28;20052;-76
2021/09/29 02:22:52;;;;;;;10.30;6.15;;;;;;;11.99;100.00;100470.66;6276321;28;20045;-76
2021/09/29 02:25:53;;;;;;;11.20;6.28;;;;;;;11.96;100.00;100480.44;6265603;28;20045;-76
2021/09/29 02:28:54;;;;;;;10.85;6.15;;;;;;;11.93;100.00;100484.09;6277179;28;20049;-76
2021/09/29 02:31:55;;;;;;;9.75;5.97;;;;;;;11.89;100.00;100470.34;6274903;28;20049;-76
2021/09/29 02:34:56;;;;;;;13.20;5.90;;;;;;;11.89;100.00;100477.38;6276029;28;20049;-76
2021/09/29 02:37:57;;;;;;;12.25;6.50;;;;;;;11.86;100.00;100473.13;6275889;28;20052;-75
2021/09/29 02:40:58;;;;;;;11.63;6.00;;;;;;;11.89;100.00;100478.22;6275893;28;20111;-75
2021/09/29 02:43:59;;;;;;;10.70;5.35;;;;;;;11.79;100.00;100466.56;6296740;28;20044;-75
2021/09/29 02:47:00;;;;;;;7.95;5.53;;;;;;;11.80;100.00;100467.44;6300866;28;20146;-75
2021/09/29 02:50:00;;;;;;;11.70;6.00;;;;;;;11.76;100.00;100471.19;6300407;28;20047;-75
2021/09/29 02:53:02;;;;;;;9.52;5.50;;;;;;;11.78;100.00;100467.53;6299272;28;20060;-75
2021/09/29 02:56:04;;;;;;;11.55;6.35;;;;;;;11.81;100.00;100467.31;6300373;28;20624;-76
2021/09/29 02:59:08;;;;;;;11.93;6.10;;;;;;;11.86;100.00;100474.88;6300202;28;20055;-75
2021/09/29 03:02:09;;;;;;;9.70;5.93;;;;;;;11.85;100.00;100478.47;6300123;28;20045;-75
2021/09/29 03:05:10;;;;;;;9.27;5.70;;;;;;;11.82;100.00;100476.88;6300128;28;20044;-76
2021/09/29 03:08:12;;;;;;;9.65;5.65;;;;;;;11.81;100.00;100472.56;6299863;28;20037;-75
2021/09/29 03:11:13;;;;;;;9.50;5.57;;;;;;;11.85;100.00;100470.59;6298614;28;20094;-76
2021/09/29 03:14:14;;;;;;;11.43;5.55;;;;;;;11.87;100.00;100466.13;6283166;28;20438;-75
2021/09/29 03:17:15;;;;;;;10.50;5.97;;;;;;;11.93;100.00;100465.78;6275037;28;20048;-75
2021/09/29 03:20:16;;;;;;;12.90;6.07;;;;;;;11.94;100.00;100466.63;6257223;28;20045;-75
2021/09/29 03:23:16;;;;;;;10.82;6.07;;;;;;;11.98;100.00;100465.50;6273709;28;20049;-75
2021/09/29 03:26:18;;;;;;;8.50;5.53;;;;;;;11.99;100.00;100472.44;6272662;28;20049;-75
2021/09/29 03:29:18;;;;;;;12.23;6.22;;;;;;;12.01;100.00;100470.56;6273569;28;20037;-75
2021/09/29 03:32:19;;;;;;;13.15;5.78;;;;;;;12.04;100.00;100460.75;6274515;28;20058;-73
2021/09/29 03:35:20;;;;;;;9.18;5.45;;;;;;;12.05;100.00;100461.59;6299422;28;20408;-75
2021/09/29 03:38:22;;;;;;;9.82;6.03;;;;;;;12.02;100.00;100460.00;6298139;28;20068;-72
2021/09/29 03:41:22;;;;;;;11.75;6.03;;;;;;;12.05;100.00;100467.66;6298121;28;20447;-72
2021/09/29 03:44:23;;;;;;;9.88;6.05;;;;;;;12.10;100.00;100468.22;6299165;28;20042;-75
2021/09/29 03:47:24;;;;;;;13.15;6.45;;;;;;;12.09;100.00;100476.19;6281078;28;20048;-76
2021/09/29 03:50:25;;;;;;;16.48;6.32;;;;;;;12.10;100.00;100476.06;6297861;28;20059;-76
2021/09/29 03:53:26;;;;;;;13.23;6.22;;;;;;;12.15;100.00;100477.56;6297729;28;20471;-76
2021/09/29 03:56:27;;;;;;;11.25;6.68;;;;;;;12.17;100.00;100480.94;6298947;28;20049;-72
2021/09/29 03:59:29;;;;;;;14.35;6.57;;;;;;;12.19;100.00;100473.81;6297426;28;20044;-72
2021/09/29 04:02:30;;;;;;;14.77;7.03;;;;;;;12.20;100.00;100472.91;6280796;28;20423;-72
2021/09/29 04:05:31;;;;;;;11.30;6.20;;;;;;;12.26;100.00;100473.38;6297156;28;20394;-72
2021/09/29 04:08:31;;;;;;;13.73;5.90;;;;;;;12.26;100.00;100470.75;6279618;28;20056;-72
2021/09/29 04:11:33;;;;;;;9.23;5.90;;;;;;;12.28;100.00;100474.09;6297983;28;20059;-76
2021/09/29 04:14:34;;;;;;;10.27;6.30;;;;;;;12.23;100.00;100473.56;6297208;28;20052;-76
2021/09/29 04:17:36;;;;;;;10.70;6.10;;;;;;;12.30;100.00;100474.84;6298370;28;20090;-72
2021/09/29 04:20:37;;;;;;;;;;;;;;;12.34;100.00;100478.13;6297432;28;20036;-73
2021/09/29 04:23:39;;;;;;;13.45;6.00;;;;;;;12.36;100.00;100478.03;6298262;28;19927;-72
2021/09/29 04:26:41;;;;;;;11.27;6.75;;;;;;;12.40;100.00;100480.38;6298270;28;20044;-73
2021/09/29 04:29:42;;;;;;;15.68;6.32;;;;;;;12.42;100.00;100481.13;6298132;28;20047;-73
2021/09/29 04:32:44;;;;;;;14.65;6.32;;;;;;;12.42;100.00;100482.91;6298073;28;20052;-73
2021/09/29 04:35:45;;;;;;;;;;;;;;;12.43;100.00;100480.16;6314339;28;20053;-72
2021/09/29 04:38:46;;;;;;;10.95;6.20;;;;;;;12.43;100.00;100479.34;6279837;28;20322;-73
2021/09/29 04:41:47;;;;;;;10.02;5.90;;;;;;;12.44;100.00;100476.63;6298022;28;20055;-75
2021/09/29 04:44:47;;;;;;;13.10;5.70;;;;;;;12.46;100.00;100481.78;6296311;28;20048;-75
2021/09/29 04:47:48;;;;;;;11.48;6.18;;;;;;;12.49;100.00;100485.03;6281631;28;20049;-75
2021/09/29 04:50:49;;;;;;;12.77;6.35;;;;;;;12.50;100.00;100483.28;6273916;28;20098;-76
2021/09/29 04:53:50;;;;;;;12.95;6.70;;;;;;;12.52;100.00;100480.53;6271434;28;20048;-75
2021/09/29 04:56:51;;;;;;;8.65;5.57;;;;;;;12.58;100.00;100488.00;6273690;28;20064;-75
2021/09/29 04:59:52;;;;;;;10.32;6.00;;;;;;;12.61;100.00;100485.22;6296075;28;20077;-76
2021/09/29 05:02:53;;;;;;;17.60;6.50;;;;;;;12.64;100.00;100488.47;6297244;28;20044;-75
2021/09/29 05:05:54;;;;;;;16.42;5.78;;;;;;;12.64;100.00;100482.38;6297212;28;20094;-75
2021/09/29 05:08:55;;;;;;;13.90;6.53;;;;;;;12.64;100.00;100483.25;6297133;28;20048;-75
2021/09/29 05:12:04;;;;;;;14.55;6.78;;;;;;;12.64;100.00;100485.88;6297086;28;20073;-75
2021/09/29 05:15:05;;;;;;;20.23;6.05;;;;;;;12.65;100.00;100476.22;6295835;28;20059;-75
2021/09/29 05:18:06;;;;;;;15.77;6.38;;;;;;;12.68;100.00;100470.78;6297143;28;20074;-75
2021/09/29 05:21:08;;;;;;;13.15;6.50;;;;;;;12.73;100.00;100475.75;6296824;28;20044;-75
2021/09/29 05:24:09;;;;;;;12.77;6.72;;;;;;;12.69;100.00;100467.25;6296375;28;20048;-75
2021/09/29 05:27:11;;;;;;;13.20;6.82;;;;;;;12.77;100.00;100475.44;6285404;28;20045;-75
2021/09/29 05:30:12;;;;;;;14.50;6.68;;;;;;;12.85;100.00;100473.19;6270634;28;20136;-75
2021/09/29 05:33:13;;;;;;;10.75;6.38;;;;;;;12.90;100.00;100473.72;6270743;28;20399;-75
2021/09/29 05:36:14;;;;;;;11.20;5.85;;;;;;;12.99;100.00;100477.56;6273922;28;20041;-75
2021/09/29 05:39:15;;;;;;;10.25;6.25;;;;;;;13.04;100.00;100475.47;6273969;28;20049;-75
2021/09/29 05:42:16;;;;;;;10.82;6.00;;;;;;;13.10;100.00;100474.22;6272412;28;20091;-75
2021/09/29 05:45:18;;;;;;;10.10;5.55;;;;;;;13.20;100.00;100479.69;6266619;28;20041;-75
2021/09/29 05:48:19;;;;;;;10.65;5.55;;;;;;;13.33;100.00;100487.66;6267931;28;20041;-76
2021/09/29 05:51:20;;;;;;;10.43;5.90;;;;;;;13.37;100.00;100489.97;6268021;28;20464;-76
2021/09/29 05:54:21;;;;;;;11.05;5.47;;;;;;;13.46;100.00;100488.50;6269439;28;20049;-75
2021/09/29 05:57:22;;;;;;;8.70;5.60;;;;;;;13.51;100.00;100491.69;6269324;28;20060;-75
2021/09/29 06:00:23;;;;;;;12.18;5.97;;;;;;;13.54;100.00;100491.47;6268659;28;20242;-75
2021/09/29 06:03:24;;;;;;;10.02;5.25;;;;;;;13.64;100.00;100494.31;6268757;28;20071;-76
2021/09/29 06:06:25;;;;;;;10.85;5.60;;;;;;;13.65;100.00;100494.22;6270119;28;20041;-75
2021/09/29 06:09:26;;;;;;;8.95;6.03;;;;;;;13.73;100.00;100495.47;6269073;28;20040;-76
2021/09/29 06:12:27;;;;;;;14.30;4.88;;;;;;;13.79;100.00;100487.19;6270001;28;20040;-75
2021/09/29 06:15:30;;;;;;;8.30;5.18;;;;;;;13.89;100.00;100490.88;6269936;28;20047;-76
2021/09/29 06:18:34;;;;;;;10.25;4.88;;;;;;;13.90;100.00;100482.91;6268748;28;20061;-76
2021/09/29 06:21:35;;;;;;;7.50;5.25;;;;;;;13.97;100.00;100487.72;6269842;28;20049;-76
2021/09/29 06:24:36;;;;;;;7.18;5.20;;;;;;;14.03;100.00;100496.03;6268546;28;20088;-76
2021/09/29 06:27:37;;;;;;;13.05;6.75;;;;;;;14.10;100.00;100486.81;6269872;28;20435;-76
2021/09/29 06:30:38;;;;;;;11.18;5.45;;;;;;;14.22;100.00;100494.75;6268643;28;20056;-76
2021/09/29 06:33:39;;;;;;;12.90;6.07;;;;;;;14.39;100.00;100499.69;6269722;28;20683;-76
2021/09/29 06:36:40;;;;;;;7.18;4.75;;;;;;;14.51;100.00;100497.97;6268640;28;20047;-76
2021/09/29 06:39:41;;;;;;;7.10;4.22;;;;;;;14.73;100.00;100497.31;6269880;28;20099;-76
2021/09/29 06:42:42;;;;;;;10.43;4.93;;;;;;;14.86;100.00;100503.38;6269569;28;20045;-76
2021/09/29 06:45:43;;;;;;;7.10;4.20;;;;;;;15.04;100.00;100508.25;6268170;28;20389;-76
2021/09/29 06:48:44;;;;;;;5.45;3.63;;;;;;;15.06;100.00;100508.97;6269527;28;20037;-76
2021/09/29 06:51:45;;;;;;;5.43;3.83;;;;;;;15.06;100.00;100511.63;6268312;28;20037;-76
2021/09/29 06:54:46;;;;;;;8.32;4.10;;;;;;;14.91;100.00;100509.16;6268223;28;20052;-75
2021/09/29 06:57:46;;;;;;;6.03;4.00;;;;;;;14.94;100.00;100515.13;6269394;28;20052;-76
2021/09/29 07:00:48;;;;;;;5.90;3.80;;;;;;;15.02;100.00;100520.66;6235662;28;20507;-75
2021/09/29 07:03:49;;;;;;;6.22;3.58;;;;;;;15.04;100.00;100524.84;6272695;28;20120;-75
2021/09/29 07:06:50;;;;;;;5.53;3.45;;;;;;;15.00;100.00;100530.44;6274091;28;20044;-75
2021/09/29 07:09:51;;;;;;;9.10;3.50;;;;;;;15.03;100.00;100522.34;6272667;28;20067;-75
2021/09/29 07:12:54;;;;;;;7.25;4.00;;;;;;;15.10;100.00;100531.47;6273699;28;20088;-75
2021/09/29 07:15:55;;;;;;;7.88;3.58;;;;;;;15.14;100.00;100532.09;6273735;28;20044;-75
2021/09/29 07:19:01;;;;;;;5.80;3.20;;;;;;;15.18;100.00;100530.91;6272819;28;20049;-75
2021/09/29 07:22:02;;;;;;;5.10;3.67;;;;;;;15.22;100.00;100538.47;6289297;28;20404;-76
2021/09/29 07:25:04;;;;;;;6.18;3.40;;;;;;;15.31;100.00;100544.84;6273428;28;20096;-75
2021/09/29 07:28:06;;;;;;;6.75;3.30;;;;;;;15.39;100.00;100544.28;6272373;28;20051;-73
2021/09/29 07:31:06;;;;;;;7.43;3.50;;;;;;;15.44;100.00;100543.00;6273485;28;20135;-72
2021/09/29 07:34:07;;;;;;;4.40;3.20;;;;;;;15.49;100.00;100543.47;6273292;28;20041;-72
2021/09/29 07:37:08;;;;;;;9.73;3.45;;;;;;;15.56;100.00;100546.50;6272020;28;20041;-72
2021/09/29 07:40:10;;;;;;;7.47;3.20;;;;;;;15.65;100.00;100547.63;6278333;28;20091;-72
2021/09/29 07:43:11;;;;;;;8.10;3.53;;;;;;;15.79;100.00;100550.06;6283671;28;20506;-72
2021/09/29 07:46:12;;;;;;;8.57;3.17;;;;;;;15.86;100.00;100551.28;6275078;28;20061;-72
2021/09/29 07:49:15;;;;;;;5.65;2.70;;;;;;;15.90;100.00;100554.53;6278020;28;20446;-72
2021/09/29 07:52:16;;;;;;;7.80;3.10;;;;;;;15.88;100.00;100556.44;6295501;28;20491;-72
2021/09/29 07:55:18;;;;;;;5.20;3.00;;;;;;;15.83;100.00;100561.19;6296582;28;20044;-71
2021/09/29 07:58:24;;;;;;;4.90;2.50;;;;;;;15.77;100.00;100553.78;6296475;28;20045;-72
2021/09/29 08:01:25;;;;;;;5.15;2.67;;;;;;;15.79;100.00;100552.69;6287108;28;20411;-72
2021/09/29 08:04:26;;;;;;;10.48;2.42;;;;;;;15.76;100.00;100552.09;6270810;28;20041;-72
2021/09/29 08:07:27;;;;;;;10.70;2.83;;;;;;;15.70;100.00;100554.19;6276756;28;20044;-72
2021/09/29 08:10:28;;;;;;;10.02;2.38;;;;;;;15.70;100.00;100559.44;6272688;28;20045;-72
2021/09/29 08:13:29;;;;;;;5.68;2.70;;;;;;;15.61;100.00;100556.69;6279301;28;20049;-72
2021/09/29 08:16:30;;;;;;;7.40;2.47;;;;;;;15.62;100.00;100553.94;6287841;28;20036;-72
2021/09/29 08:19:30;;;;;;;5.20;2.08;;;;;;;15.64;100.00;100559.91;6296123;28;20478;-72
2021/09/29 08:22:31;;;;;;;4.70;2.17;;;;;;;15.63;100.00;100560.06;6287245;28;20471;-72
2021/09/29 08:31:46;;;;;;;3.58;2.28;;;;;;;15.66;100.00;100565.06;6272112;28;20049;-72
2021/09/29 08:37:52;;;;;;;4.53;2.30;;;;;;;15.74;100.00;100559.28;6271901;28;20496;-72
2021/09/29 08:41:04;;;;;;;3.63;2.13;;;;;;;15.80;100.00;100566.72;6271897;28;20064;-72
2021/09/29 08:47:56;;;;;;;6.47;2.30;;;;;;;15.86;100.00;100563.63;6268626;28;20175;-73
2021/09/29 08:51:24;;;;;;;7.25;2.50;;;;;;;15.91;100.00;100561.47;6271456;28;20044;-72
2021/09/29 09:17:39;;;;;;;4.18;2.97;;;;;;;16.52;100.00;100572.56;6275484;28;20483;-76
2021/09/29 09:20:46;;;;;;;6.13;3.38;;;;;;;16.58;100.00;100573.91;6278978;28;20044;-76
2021/09/29 09:23:47;;;;;;;9.10;2.92;;;;;;;16.54;100.00;100575.09;6266192;28;20045;-76
2021/09/29 09:27:00;;;;;;;6.05;2.80;;;;;;;16.69;100.00;100570.41;6253369;28;20107;-76
2021/09/29 09:30:02;;;;;;;6.57;3.40;;;;;;;16.80;100.00;100575.69;6270809;28;20037;-75
2021/09/29 09:33:03;;;;;;;7.82;3.30;;;;;;;16.79;100.00;100575.81;6270905;28;20094;-75
2021/09/29 09:36:04;;;;;;;5.72;2.53;;;;;;;16.79;100.00;100575.81;6269744;28;20126;-75
2021/09/29 09:39:13;;;;;;;4.05;2.72;;;;;;;16.75;100.00;100582.28;6280466;28;20071;-75
2021/09/29 09:42:14;;;;;;;6.45;3.40;;;;;;;16.82;100.00;100591.41;6295811;28;20044;-76
2021/09/29 09:45:18;;;;;;;8.52;3.67;;;;;;;16.72;100.00;100592.09;6295506;28;20395;-75
2021/09/29 09:48:26;;;;;;;9.27;3.30;;;;;;;16.66;100.00;100595.22;6295711;28;20041;-76
2021/09/29 09:51:27;;;;;;;11.73;4.00;;;;;;;16.66;100.00;100597.03;6295372;28;20043;-75
2021/09/29 09:54:39;;;;;;;7.70;3.33;;;;;;;16.55;100.00;100586.47;6295338;28;20185;-75
2021/09/29 09:57:42;;;;;;;8.02;4.00;;;;;;;16.51;100.00;100591.13;6283551;28;20286;-76
2021/09/29 10:00:43;;;;;;;7.78;4.07;;;;;;;16.52;100.00;100587.53;6281314;28;20098;-76
2021/09/29 10:03:44;;;;;;;6.57;3.53;;;;;;;16.49;100.00;100595.66;6287356;28;20041;-75
2021/09/29 10:06:45;;;;;;;7.82;3.67;;;;;;;16.47;100.00;100594.94;6279169;28;20048;-76
2021/09/29 10:10:00;;;;;;;8.10;3.85;;;;;;;16.52;100.00;100592.81;6281861;28;20037;-76
2021/09/29 10:26:10;;;;;;;7.15;4.30;;;;;;;16.79;100.00;100589.81;6245242;28;20046;-76
2021/09/29 10:29:13;;;;;;;9.55;4.07;;;;;;;16.79;100.00;100600.34;6306354;28;20044;-76
2021/09/29 10:48:35;;;;;;;9.65;3.80;;;;;;;16.75;100.00;100595.44;6249731;28;20099;-76
2021/09/29 10:52:24;;;;;;;7.95;3.50;;;;;;;16.63;100.00;100591.97;6248567;28;20049;-76
2021/09/29 11:32:45;;;;;;;9.93;4.43;;;;;;;16.16;100.00;100592.03;6268816;28;20118;-73
2021/09/29 11:39:12;;;;;;;7.32;4.30;;;;;;;16.28;100.00;100590.25;6296860;28;20123;-72
2021/09/29 12:09:28;;;;;;;14.48;9.60;;;;;;;16.18;100.00;100576.13;6295329;28;20071;-72
2021/09/29 12:12:35;;;;;;;8.27;5.20;;;;;;;16.21;100.00;100568.84;6288965;28;20391;-72
2021/09/29 12:15:45;;;;;;;29.75;19.50;;;;;;;16.21;100.00;100568.84;6277985;28;20059;-72
2021/09/29 12:18:57;;;;;;;16.40;10.30;;;;;;;16.31;100.00;100572.44;6280477;28;20435;-72
2021/09/29 12:22:01;;;;;;;14.40;9.05;;;;;;;16.36;100.00;100579.16;6282812;28;20041;-72
2021/09/29 12:25:07;;;;;;;19.38;13.10;;;;;;;16.27;100.00;100578.06;6287532;28;20473;-76
2021/09/29 12:34:32;;;;;;;14.93;9.73;;;;;;;16.43;100.00;100575.94;6272182;28;20049;-76
2021/09/29 12:37:33;;;;;;;15.70;10.30;;;;;;;16.26;100.00;100571.94;6289664;28;20059;-73
2021/09/29 12:40:36;;;;;;;18.23;10.18;;;;;;;16.22;100.00;100578.41;6279001;28;20045;-72
2021/09/29 12:43:37;;;;;;;14.70;9.45;;;;;;;16.16;100.00;100578.88;6282654;28;20139;-72
2021/09/29 12:46:38;;;;;;;14.95;9.32;;;;;;;16.07;100.00;100582.22;6282088;28;20047;-72
2021/09/29 12:49:39;;;;;;;19.02;9.75;;;;;;;16.13;100.00;100591.44;6295338;28;20502;-72
2021/09/29 12:52:48;;;;;;;15.95;11.00;;;;;;;16.08;100.00;100595.25;6293339;28;20083;-73
2021/09/29 12:55:55;;;;;;;15.55;9.50;;;;;;;16.04;100.00;100582.44;6275860;28;20571;-75
2021/09/29 12:58:55;;;;;;;23.92;11.52;;;;;;;16.09;100.00;100593.47;6271366;28;20057;-76
2021/09/29 13:01:56;;;;;;;16.42;11.88;;;;;;;16.06;100.00;100594.53;6271430;28;20033;-72
2021/09/29 13:04:57;;;;;;;17.40;10.40;;;;;;;16.05;100.00;100597.28;6270067;28;20037;-72
2021/09/29 13:07:58;;;;;;;16.55;10.55;;;;;;;16.06;100.00;100604.22;6271071;28;20044;-72
2021/09/29 13:10:59;;;;;;;15.30;10.80;;;;;;;16.09;100.00;100594.28;6269977;28;20511;-75
2021/09/29 13:14:00;;;;;;;14.40;10.20;;;;;;;16.09;100.00;100594.28;6270014;28;20411;-75
2021/09/29 13:17:01;;;;;;;17.20;11.13;;;;;;;16.09;100.00;100590.84;6269764;28;20044;-75
2021/09/29 13:20:05;;;;;;;17.97;12.30;;;;;;;16.11;100.00;100594.19;6269865;28;20052;-72
2021/09/29 13:23:25;;;;;;;15.15;10.23;;;;;;;16.16;100.00;100585.94;6271000;28;20047;-76
2021/09/29 13:39:26;;;;;;;16.52;10.85;;;;;;;16.13;100.00;100594.91;6269507;28;20045;-72
2021/09/29 13:42:27;;;;;;;15.98;11.00;;;;;;;16.03;100.00;100596.56;6269338;28;20041;-72
2021/09/29 13:45:28;;;;;;;18.10;11.88;;;;;;;15.96;100.00;100595.31;6269292;28;20041;-76
2021/09/29 13:48:29;;;;;;;18.75;11.70;;;;;;;15.98;100.00;100585.53;6270335;28;20044;-75
2021/09/29 13:51:30;;;;;;;21.20;11.55;;;;;;;16.00;100.00;100588.88;6270579;28;20041;-72
2021/09/29 13:54:31;;;;;;;20.17;12.35;;;;;;;16.03;100.00;100591.28;6270397;28;20611;-73
2021/09/29 14:29:53;;;;;;;17.38;10.80;;;;;;;15.78;100.00;100598.38;6278042;28;20420;-72
2021/09/29 14:32:58;;;;;;;17.00;9.75;;;;;;;15.79;100.00;100599.22;6277045;28;20049;-72
2021/09/29 14:35:59;;;;;;;27.83;10.77;;;;;;;15.73;100.00;100592.66;6276901;28;20049;-71
2021/09/29 14:39:00;;;;;;;22.67;10.48;;;;;;;15.77;100.00;100598.50;6278026;28;20094;-75
2021/09/29 14:42:01;;;;;;;21.00;11.23;;;;;;;15.81;100.00;100602.56;6276920;28;20060;-71
2021/09/29 14:45:02;;;;;;;25.77;13.63;;;;;;;15.82;100.00;100606.91;6276670;28;20480;-72
2021/09/29 14:48:05;;;;;;;17.50;10.85;;;;;;;15.80;100.00;100596.47;6277899;28;20041;-71
2021/09/29 14:51:08;;;;;;;20.55;11.73;;;;;;;15.76;100.00;100596.84;6276808;28;20044;-71
2021/09/29 14:54:09;;;;;;;20.83;11.18;;;;;;;15.81;100.00;100599.94;6260481;28;20055;-72
2021/09/29 14:57:10;;;;;;;22.38;11.18;;;;;;;15.77;100.00;100606.38;6277693;28;20048;-72
2021/09/29 15:00:12;;;;;;;22.75;12.15;;;;;;;15.68;100.00;100602.63;6278036;28;20040;-71
2021/09/29 15:03:15;;;;;;;20.90;11.30;;;;;;;15.70;100.00;100604.19;6277940;28;20041;-72
2021/09/29 15:06:16;;;;;;;24.10;11.27;;;;;;;15.74;100.00;100611.88;6260397;28;20071;-71
2021/09/29 15:09:18;;;;;;;22.27;11.45;;;;;;;15.74;100.00;100611.88;6277750;28;20132;-72
2021/09/29 15:12:19;;;;;;;25.65;11.80;;;;;;;15.79;100.00;100600.06;6276994;28;20110;-72
2021/09/29 15:15:27;;;;;;;19.55;11.63;;;;;;;15.76;100.00;100610.81;6277741;28;20197;-76
2021/09/29 15:18:33;;;;;;;78.32;54.15;;;;;;;15.81;100.00;100613.09;6276796;28;20123;-76
2021/09/29 15:21:46;;;;;;;50.20;33.38;;;;;;;15.93;100.00;100614.81;6275428;28;20045;-77
2021/09/29 15:24:53;;;;;;;52.85;34.88;;;;;;;15.93;100.00;100612.19;6273690;28;20116;-76
2021/09/29 15:28:17;;;;;;;49.03;36.88;;;;;;;15.88;100.00;100611.72;6273591;28;20041;-72
2021/09/29 15:51:26;;;;;;;17.40;10.95;;;;;;;15.70;100.00;100625.22;6272191;28;20044;-77
2021/09/29 16:01:09;;;;;;;29.73;17.77;;;;;;;15.70;100.00;100622.59;6272829;28;20412;-77
2021/09/29 16:14:37;;;;;;;42.58;23.10;;;;;;;15.62;100.00;100632.00;6271587;28;20052;-75
2021/09/29 16:17:32;;;;;;;55.95;31.50;;;;;;;15.54;100.00;100629.94;6272128;28;20128;-77
2021/09/29 16:30:04;;;;;;;28.27;16.25;;;;;;;15.40;100.00;100630.09;6272076;28;20463;-75
2021/09/29 16:33:15;;;;;;;21.02;14.18;;;;;;;15.35;100.00;100643.56;6270649;28;20045;-76
2021/09/29 16:36:17;;;;;;;26.08;17.20;;;;;;;15.39;100.00;100639.75;6277169;28;20483;-75
2021/09/29 16:39:19;;;;;;;29.05;16.15;;;;;;;15.39;100.00;100645.03;6272134;28;20080;-75
2021/09/29 16:42:20;;;;;;;25.05;15.65;;;;;;;15.41;100.00;100652.81;6272002;28;20044;-74
2021/09/29 16:45:24;;;;;;;21.75;14.20;;;;;;;15.42;100.00;100654.47;6271744;28;20041;-77
2021/09/29 16:48:28;;;;;;;27.95;15.40;;;;;;;15.45;100.00;100647.22;6254655;28;20072;-74
2021/09/29 16:51:34;;;;;;;24.02;13.63;;;;;;;15.48;100.00;100659.28;6270490;28;20040;-75
2021/09/29 16:54:36;;;;;;;22.45;13.98;;;;;;;15.44;100.00;100665.72;6271680;28;20107;-75
2021/09/29 16:57:41;;;;;;;21.13;13.00;;;;;;;15.36;100.00;100666.28;6275628;28;20056;-75
2021/09/29 17:00:46;;;;;;;23.83;15.57;;;;;;;15.41;100.00;100666.78;6295151;28;20045;-71
2021/09/29 17:03:47;;;;;;;21.27;13.00;;;;;;;15.43;100.00;100677.22;6296200;28;20232;-72
2021/09/29 17:06:48;;;;;;;17.85;11.90;;;;;;;15.43;100.00;100674.56;6296131;28;20067;-72
2021/09/29 17:09:49;;;;;;;24.63;14.20;;;;;;;15.29;100.00;100675.56;6294772;28;20045;-72
2021/09/29 17:12:51;;;;;;;22.33;15.15;;;;;;;15.30;100.00;100678.09;6294779;28;20118;-72
2021/09/29 17:15:56;;;;;;;15.30;9.68;;;;;;;15.27;100.00;100680.06;6294626;28;20053;-72
2021/09/29 17:19:03;;;;;;;15.48;9.80;;;;;;;15.29;100.00;100684.28;6295857;28;20041;-75
2021/09/29 17:22:05;;;;;;;14.18;9.88;;;;;;;15.28;100.00;100685.25;6294504;28;20115;-76
2021/09/29 17:25:07;;;;;;;17.70;9.82;;;;;;;15.19;100.00;100672.72;6295641;28;20119;-74
2021/09/29 17:28:14;;;;;;;;;;;;;;;15.22;100.00;100680.41;6296170;28;20399;-75
2021/09/29 17:31:19;;;;;;;13.02;7.82;;;;;;;15.20;100.00;100684.94;6295642;28;19924;-75
2021/09/29 17:53:48;;;;;;;13.98;8.68;;;;;;;14.99;100.00;100695.16;6259095;28;20499;-72
2021/09/29 17:56:48;;;;;;;12.35;8.52;;;;;;;14.98;100.00;100698.72;6288889;28;20045;-73
2021/09/29 17:59:50;;;;;;;13.20;7.07;;;;;;;14.93;100.00;100705.25;6258957;28;20039;-72
2021/09/29 18:09:09;;;;;;;9.50;7.47;;;;;;;14.84;100.00;100704.09;6259409;28;20333;-73
2021/09/29 18:12:10;;;;;;;14.60;7.25;;;;;;;14.86;100.00;100702.19;6257987;28;20450;-72